Time;durP1;ratioP1;P1;durP2;ratioP2;P2;SDS_P1;SDS_P2;PMS_P1;PMS_P2;Temp;Humidity;BMP_temperature;BMP_pressure;BME280_temperature;BME280_humidity;BME280_pressure;Samples;Min_cycle;Max_cycle;Signal;HPM_P1;HPM_P2
2022/09/10 00:00:59;;;;;;;24.65;8.77;;;;;;;5.18;71.24;100709.28;5057135;28;20079;-68
2022/09/10 00:03:24;;;;;;;22.92;8.88;;;;;;;5.16;71.05;100705.84;5055757;28;20070;-70
2022/09/10 00:05:49;;;;;;;15.93;8.55;;;;;;;5.15;71.15;100706.75;5020323;28;20100;-69
2022/09/10 00:08:15;;;;;;;15.50;7.85;;;;;;;5.15;71.01;100698.81;5039503;28;20108;-68
2022/09/10 00:10:45;;;;;;;21.27;9.68;;;;;;;5.16;71.46;100705.84;5055541;28;20036;-68
2022/09/10 00:13:12;;;;;;;17.10;9.35;;;;;;;5.15;71.40;100704.09;5052582;28;20379;-68
2022/09/10 00:15:42;;;;;;;15.80;8.52;;;;;;;5.16;71.61;100702.31;5036712;28;20509;-68
2022/09/10 00:18:08;;;;;;;17.35;8.68;;;;;;;5.13;71.39;100708.56;5036170;28;20031;-67
2022/09/10 00:20:33;;;;;;;14.07;7.55;;;;;;;5.10;71.53;100703.38;5054999;28;20032;-70
2022/09/10 00:22:57;;;;;;;18.05;8.95;;;;;;;5.10;70.79;100717.44;5054942;28;20051;-70
2022/09/10 00:25:22;;;;;;;16.83;8.65;;;;;;;5.11;71.04;100707.75;5035867;28;20084;-72
2022/09/10 00:27:47;;;;;;;16.67;8.82;;;;;;;5.12;71.06;100709.47;5037248;28;20047;-73
2022/09/10 00:30:12;;;;;;;13.80;8.98;;;;;;;5.11;71.33;100702.47;5019923;28;20035;-70
2022/09/10 00:32:39;;;;;;;16.70;9.45;;;;;;;5.10;70.91;100706.88;5032953;28;20834;-70
2022/09/10 00:35:05;;;;;;;18.92;9.82;;;;;;;5.11;71.20;100707.75;5034905;28;20067;-64
2022/09/10 00:37:30;;;;;;;21.92;9.25;;;;;;;5.11;70.92;100718.31;5050353;28;20048;-71
2022/09/10 00:39:55;;;;;;;17.80;10.57;;;;;;;5.10;71.08;100708.66;5036310;28;20040;-67
2022/09/10 00:42:19;;;;;;;22.13;10.13;;;;;;;5.11;71.11;100719.19;5053872;28;20071;-70
2022/09/10 00:44:44;;;;;;;21.13;10.95;;;;;;;5.11;70.68;100707.75;5054206;28;20060;-72
2022/09/10 00:47:20;;;;;;;21.05;10.35;;;;;;;5.15;70.96;100719.09;5054311;28;20043;-70
2022/09/10 00:49:54;;;;;;;15.05;9.90;;;;;;;5.15;70.85;100719.97;5059565;28;20052;-68
2022/09/10 00:52:20;;;;;;;20.10;9.98;;;;;;;5.11;70.91;100718.31;5034497;28;20406;-66
2022/09/10 00:54:46;;;;;;;23.02;11.65;;;;;;;5.09;70.64;100723.66;5054951;28;20040;-69
2022/09/10 00:57:16;;;;;;;23.48;10.15;;;;;;;5.10;70.87;100720.09;5053921;28;20036;-66
2022/09/10 00:59:46;;;;;;;19.63;8.73;;;;;;;5.09;70.79;100723.66;5018949;28;20105;-71
2022/09/10 01:02:11;;;;;;;18.05;8.98;;;;;;;5.04;70.90;100717.66;5055263;28;20067;-69
2022/09/10 01:04:38;;;;;;;19.50;9.32;;;;;;;5.03;71.19;100715.94;5032971;28;20479;-68
2022/09/10 01:07:04;;;;;;;22.08;10.75;;;;;;;5.01;71.07;100714.25;5032174;28;20041;-66
2022/09/10 01:09:29;;;;;;;17.35;9.40;;;;;;;5.00;71.21;100721.31;5049386;28;20089;-66
2022/09/10 01:12:07;;;;;;;20.13;8.93;;;;;;;5.04;71.17;100716.78;5019899;28;20044;-68
2022/09/10 01:14:42;;;;;;;17.73;9.25;;;;;;;4.98;71.53;100720.47;5034035;28;20047;-66
2022/09/10 01:17:18;;;;;;;20.75;9.57;;;;;;;4.99;71.24;100730.13;5054571;28;20050;-66
2022/09/10 01:20:01;;;;;;;19.45;10.32;;;;;;;4.94;71.01;100718.00;5033385;28;20050;-67
2022/09/10 01:22:58;;;;;;;19.92;10.25;;;;;;;4.99;71.08;100730.13;5034548;28;20048;-67
2022/09/10 01:25:39;;;;;;;20.20;9.57;;;;;;;4.96;71.13;100724.09;5033580;28;20040;-66
2022/09/10 01:28:21;;;;;;;25.50;10.55;;;;;;;4.94;70.82;100734.72;5034205;28;20154;-66
2022/09/10 01:30:54;;;;;;;20.15;9.77;;;;;;;4.88;71.25;100723.47;5034842;28;20059;-67
2022/09/10 01:33:45;;;;;;;21.85;8.90;;;;;;;4.83;70.56;100731.53;5052901;28;20040;-67
2022/09/10 01:36:19;;;;;;;22.98;10.15;;;;;;;4.83;70.65;100726.25;5009034;28;20457;-66
2022/09/10 01:38:45;;;;;;;21.02;11.45;;;;;;;4.78;70.98;100733.44;5017864;28;20067;-69
2022/09/10 01:41:11;;;;;;;18.25;9.90;;;;;;;4.77;70.93;100738.78;5036496;28;20465;-66
2022/09/10 01:43:40;;;;;;;22.90;10.40;;;;;;;4.73;71.43;100730.97;5001123;28;20043;-71
2022/09/10 01:46:38;;;;;;;20.15;9.90;;;;;;;4.78;70.96;100729.94;5003165;28;20066;-73
2022/09/10 01:49:26;;;;;;;19.45;10.30;;;;;;;4.74;71.27;100734.44;5036484;28;20047;-74
2022/09/10 01:52:04;;;;;;;19.90;10.73;;;;;;;4.69;71.22;100728.44;5021175;28;20048;-70
2022/09/10 01:54:45;;;;;;;24.30;10.10;;;;;;;4.71;71.22;100732.78;5041239;28;20141;-71
2022/09/10 01:57:47;;;;;;;24.83;10.40;;;;;;;4.72;71.13;100731.88;5043094;28;20048;-75
2022/09/10 02:00:17;;;;;;;20.95;9.32;;;;;;;4.65;71.40;100729.44;5041604;28;20154;-72
2022/09/10 02:02:47;;;;;;;20.35;10.73;;;;;;;4.64;71.24;100730.34;5042976;28;20052;-73
2022/09/10 02:05:13;;;;;;;20.45;11.05;;;;;;;4.59;71.57;100727.88;5056768;28;20082;-69
2022/09/10 02:07:41;;;;;;;20.13;11.20;;;;;;;4.56;71.49;100725.31;5058531;28;20411;-71
2022/09/10 02:10:09;;;;;;;24.88;10.35;;;;;;;4.53;71.73;100728.03;5057245;28;20040;-72
2022/09/10 02:12:40;;;;;;;19.95;12.00;;;;;;;4.52;71.79;100730.72;5040141;28;20052;-71
2022/09/10 02:15:27;;;;;;;19.95;10.30;;;;;;;4.53;71.51;100728.03;5058471;28;20074;-71
2022/09/10 02:18:06;;;;;;;17.80;10.18;;;;;;;4.53;71.66;100728.03;5040211;28;20502;-71
2022/09/10 02:20:31;;;;;;;21.90;10.40;;;;;;;4.52;71.72;100728.06;5040231;28;20471;-72
2022/09/10 02:22:57;;;;;;;19.17;10.00;;;;;;;4.52;71.50;100722.78;5036606;28;20135;-69
2022/09/10 02:25:24;;;;;;;19.98;10.60;;;;;;;4.51;71.46;100727.22;5051141;28;20035;-71
2022/09/10 02:27:54;;;;;;;24.40;11.82;;;;;;;4.47;71.44;100717.66;5033625;28;20564;-62
2022/09/10 02:30:19;;;;;;;31.33;12.50;;;;;;;4.46;71.74;100718.56;5037876;28;20713;-62
2022/09/10 02:32:43;;;;;;;19.25;10.40;;;;;;;4.45;71.67;100715.97;5020363;28;20066;-62
2022/09/10 02:35:10;;;;;;;20.92;11.02;;;;;;;4.44;71.69;100715.09;5020749;28;20048;-62
2022/09/10 02:37:37;;;;;;;29.23;11.80;;;;;;;4.43;72.15;100717.78;5020419;28;20102;-61
2022/09/10 02:40:04;;;;;;;20.83;11.05;;;;;;;4.42;71.57;100716.91;5022393;28;20540;-64
2022/09/10 02:42:28;;;;;;;19.15;10.85;;;;;;;4.41;71.61;100715.19;5054565;28;20071;-64
2022/09/10 02:44:54;;;;;;;20.08;11.38;;;;;;;4.41;71.70;100715.19;5032579;28;20107;-63
2022/09/10 02:47:19;;;;;;;23.48;13.50;;;;;;;4.40;71.73;100718.75;5053517;28;20044;-63
2022/09/10 02:49:44;;;;;;;26.50;12.48;;;;;;;4.39;71.70;100714.38;5035086;28;20098;-67
2022/09/10 02:52:11;;;;;;;20.02;10.82;;;;;;;4.38;71.37;100720.56;5035161;28;20174;-63
2022/09/10 02:54:36;;;;;;;21.48;10.90;;;;;;;4.37;71.41;100721.47;5038057;28;20404;-64
2022/09/10 02:57:01;;;;;;;19.42;10.85;;;;;;;4.37;71.70;100724.13;5039010;28;20059;-62
2022/09/10 02:59:25;;;;;;;24.00;13.02;;;;;;;4.36;71.75;100720.63;5035214;28;20044;-64
2022/09/10 03:01:50;;;;;;;29.52;13.57;;;;;;;4.34;71.99;100725.06;5038842;28;20172;-62
2022/09/10 03:04:15;;;;;;;24.75;11.88;;;;;;;4.34;71.84;100726.84;5056887;28;20041;-63
2022/09/10 03:06:42;;;;;;;18.27;10.25;;;;;;;4.35;71.96;100718.00;5057772;28;20032;-62
2022/09/10 03:09:07;;;;;;;23.00;11.93;;;;;;;4.35;71.54;100720.66;5040909;28;20372;-60
2022/09/10 03:11:31;;;;;;;20.23;12.18;;;;;;;4.37;71.54;100719.72;5040841;28;20449;-61
2022/09/10 03:13:57;;;;;;;24.80;11.68;;;;;;;4.38;71.57;100713.53;5059432;28;20044;-62
2022/09/10 03:16:23;;;;;;;20.60;11.93;;;;;;;4.44;71.62;100722.16;5060152;28;20047;-62
2022/09/10 03:18:47;;;;;;;24.45;11.23;;;;;;;4.54;71.54;100716.56;5057396;28;20043;-62
2022/09/10 03:21:19;;;;;;;23.23;12.13;;;;;;;4.71;71.29;100729.28;5021803;28;20106;-60
2022/09/10 03:23:45;;;;;;;23.13;13.75;;;;;;;4.84;71.31;100727.13;5025386;28;20402;-69
2022/09/10 03:26:13;;;;;;;28.40;13.02;;;;;;;4.99;70.38;100719.56;5018647;28;20042;-69
2022/09/10 03:28:39;;;;;;;21.63;11.18;;;;;;;5.14;70.31;100718.22;5018865;28;20552;-70
2022/09/10 03:31:07;;;;;;;21.73;12.48;;;;;;;5.28;69.79;100721.28;5035977;28;20138;-60
2022/09/10 03:33:37;;;;;;;21.55;11.77;;;;;;;5.44;68.92;100725.16;5019116;28;20041;-62
2022/09/10 03:36:03;;;;;;;19.65;10.98;;;;;;;5.60;68.95;100717.56;5019349;28;20040;-63
2022/09/10 03:38:28;;;;;;;22.00;12.30;;;;;;;5.77;67.99;100723.13;5018644;28;20048;-61
2022/09/10 03:40:54;;;;;;;28.25;12.38;;;;;;;5.93;68.16;100726.16;5018990;28;20040;-70
2022/09/10 03:43:21;;;;;;;22.88;11.00;;;;;;;6.10;67.86;100717.59;5019536;28;20051;-71
2022/09/10 03:45:48;;;;;;;22.70;12.93;;;;;;;6.24;66.70;100719.75;5020059;28;20097;-71
2022/09/10 03:48:13;;;;;;;24.63;12.25;;;;;;;6.38;66.07;100733.38;5018735;28;20032;-70
2022/09/10 03:50:38;;;;;;;18.30;11.55;;;;;;;6.53;65.72;100719.56;5032660;28;20055;-70
2022/09/10 03:53:02;;;;;;;25.25;12.45;;;;;;;6.68;65.42;100729.56;5056857;28;20044;-70
2022/09/10 03:55:28;;;;;;;25.33;12.23;;;;;;;6.83;64.93;100715.72;5038294;28;20044;-70
2022/09/10 03:57:52;;;;;;;25.20;13.30;;;;;;;6.98;64.07;100716.06;5056352;28;20047;-70
2022/09/10 04:00:17;;;;;;;27.33;12.30;;;;;;;7.15;63.81;100714.44;5038218;28;20052;-70
2022/09/10 04:02:42;;;;;;;24.77;13.27;;;;;;;7.29;63.02;100720.06;5037618;28;20067;-70
2022/09/10 04:05:09;;;;;;;22.38;12.50;;;;;;;7.44;62.73;100723.88;5039234;28;20058;-70
2022/09/10 04:07:38;;;;;;;23.05;12.40;;;;;;;7.59;62.45;100723.22;5055957;28;20039;-70
2022/09/10 04:10:03;;;;;;;21.65;12.43;;;;;;;7.74;62.38;100727.03;5057885;28;20058;-71
2022/09/10 04:12:28;;;;;;;21.85;12.40;;;;;;;7.89;61.69;100722.84;5057128;28;20046;-70
2022/09/10 04:14:53;;;;;;;26.73;13.38;;;;;;;8.09;61.67;100722.84;5039690;28;20044;-61
2022/09/10 04:17:18;;;;;;;22.20;13.38;;;;;;;8.28;61.08;100721.09;5006409;28;20131;-62
2022/09/10 04:19:43;;;;;;;29.02;15.48;;;;;;;8.50;60.67;100728.13;5035810;28;20056;-62
2022/09/10 04:22:08;;;;;;;26.25;13.50;;;;;;;8.69;59.79;100723.69;5017197;28;20036;-62
2022/09/10 04:24:33;;;;;;;22.25;12.85;;;;;;;8.91;59.67;100724.41;5017915;28;20066;-62
2022/09/10 04:27:00;;;;;;;21.10;12.38;;;;;;;9.10;58.60;100725.25;5017422;28;20050;-62
2022/09/10 04:29:25;;;;;;;25.98;13.25;;;;;;;9.28;58.37;100725.28;5017988;28;20424;-62
2022/09/10 04:31:49;;;;;;;27.33;13.07;;;;;;;9.40;58.06;100722.03;5001060;28;20075;-62
2022/09/10 04:34:15;;;;;;;26.27;13.13;;;;;;;9.54;58.11;100726.66;5035687;28;20053;-61
2022/09/10 04:36:41;;;;;;;16.58;11.48;;;;;;;9.66;57.53;100726.91;5001759;28;20039;-71
2022/09/10 04:39:06;;;;;;;21.92;12.38;;;;;;;9.79;57.21;100730.69;5036130;28;20114;-69
2022/09/10 04:41:31;;;;;;;22.90;12.20;;;;;;;9.94;57.51;100726.34;5017983;28;20036;-69
2022/09/10 04:43:57;;;;;;;22.80;12.00;;;;;;;10.11;56.69;100730.81;5017647;28;20048;-72
2022/09/10 04:46:22;;;;;;;24.73;14.32;;;;;;;10.24;56.13;100726.59;5035542;28;20040;-62
2022/09/10 04:48:49;;;;;;;26.70;13.13;;;;;;;10.40;55.82;100731.97;5017707;28;20078;-70
2022/09/10 04:51:18;;;;;;;21.60;13.07;;;;;;;10.60;55.16;100729.13;5034416;28;20051;-71
2022/09/10 04:53:58;;;;;;;20.40;11.65;;;;;;;10.89;54.84;100730.16;5018529;28;20052;-62
2022/09/10 04:56:27;;;;;;;17.85;11.63;;;;;;;11.13;54.00;100731.47;5018820;28;20051;-61
2022/09/10 04:58:52;;;;;;;21.17;12.30;;;;;;;11.33;53.40;100722.31;5035540;28;20048;-63
2022/09/10 05:01:17;;;;;;;18.63;10.95;;;;;;;11.53;52.56;100724.69;5018757;28;20036;-62
2022/09/10 05:03:44;;;;;;;20.35;12.32;;;;;;;11.72;52.73;100721.81;5040290;28;20055;-62
2022/09/10 05:06:10;;;;;;;23.63;12.00;;;;;;;11.87;51.91;100718.25;5020326;28;20135;-63
2022/09/10 05:08:35;;;;;;;24.70;12.48;;;;;;;12.04;51.70;100721.75;5037835;28;20119;-63
2022/09/10 05:11:01;;;;;;;21.92;11.88;;;;;;;12.22;50.55;100718.81;5019050;28;20029;-63
2022/09/10 05:13:27;;;;;;;24.88;11.80;;;;;;;12.37;49.92;100730.38;5033729;28;20080;-63
2022/09/10 05:15:52;;;;;;;20.23;11.18;;;;;;;12.53;49.30;100728.47;5017294;28;20523;-63
2022/09/10 05:18:16;;;;;;;22.98;11.70;;;;;;;12.62;49.45;100727.03;5017315;28;20545;-63
2022/09/10 05:20:44;;;;;;;23.52;11.20;;;;;;;12.89;48.81;100733.31;5049189;28;20044;-63
2022/09/10 05:23:09;;;;;;;18.23;10.25;;;;;;;13.26;48.15;100730.97;5036674;28;20051;-62
2022/09/10 05:25:35;;;;;;;21.83;11.93;;;;;;;13.65;47.70;100727.50;5037461;28;20040;-63
2022/09/10 05:28:00;;;;;;;23.20;12.25;;;;;;;13.82;46.45;100733.44;5020363;28;20122;-62
2022/09/10 05:30:25;;;;;;;21.30;11.48;;;;;;;13.97;46.60;100730.69;5038191;28;20095;-61
2022/09/10 05:32:52;;;;;;;18.30;9.00;;;;;;;14.23;44.95;100731.56;5022756;28;20036;-62
2022/09/10 05:35:16;;;;;;;16.52;8.27;;;;;;;14.85;43.63;100733.38;5039599;28;20484;-69
2022/09/10 05:37:44;;;;;;;14.73;7.43;;;;;;;15.32;42.41;100725.53;5038140;28;20043;-69
2022/09/10 05:40:13;;;;;;;14.95;7.55;;;;;;;15.52;41.85;100727.59;5021275;28;20040;-70
2022/09/10 05:42:38;;;;;;;11.95;7.80;;;;;;;15.76;40.67;100731.16;5038076;28;20486;-70
2022/09/10 05:45:03;;;;;;;14.93;6.72;;;;;;;16.17;39.92;100729.81;5055717;28;20554;-70
2022/09/10 05:47:29;;;;;;;12.18;6.85;;;;;;;16.92;38.75;100738.25;5037367;28;20055;-70
2022/09/10 05:49:56;;;;;;;10.50;7.43;;;;;;;18.13;36.82;100728.06;5036637;28;20043;-70
2022/09/10 05:52:23;;;;;;;10.18;5.93;;;;;;;19.37;34.26;100725.22;5053503;28;20055;-71
2022/09/10 05:54:48;;;;;;;16.60;6.40;;;;;;;20.45;31.72;100715.97;5057238;28;20517;-70
2022/09/10 05:57:13;;;;;;;11.02;6.05;;;;;;;21.32;30.44;100719.19;5058075;28;20073;-69
2022/09/10 05:59:38;;;;;;;8.05;5.97;;;;;;;22.22;29.43;100728.22;5025704;28;20210;-72
2022/09/10 06:02:03;;;;;;;10.13;5.47;;;;;;;23.00;27.99;100723.59;5021049;28;20047;-72
2022/09/10 06:04:28;;;;;;;10.10;5.82;;;;;;;23.71;26.93;100723.16;5062271;28;20040;-71
2022/09/10 06:06:53;;;;;;;14.30;6.68;;;;;;;24.19;25.96;100716.88;5038300;28;20028;-71
2022/09/10 06:09:18;;;;;;;10.50;6.07;;;;;;;24.73;25.29;100726.16;5038262;28;20055;-69
2022/09/10 06:11:53;;;;;;;15.00;6.10;;;;;;;25.51;24.44;100725.34;5036572;28;20366;-71
2022/09/10 06:14:19;;;;;;;9.68;6.07;;;;;;;26.20;23.62;100715.28;5019414;28;20047;-71
2022/09/10 06:16:44;;;;;;;15.20;6.93;;;;;;;26.85;22.64;100723.72;5035963;28;20473;-70
2022/09/10 06:19:09;;;;;;;11.07;6.45;;;;;;;27.32;22.22;100725.19;5036452;28;20050;-71
2022/09/10 06:21:34;;;;;;;13.50;5.80;;;;;;;27.58;21.96;100721.97;5036583;28;20515;-71
2022/09/10 06:23:59;;;;;;;11.23;5.28;;;;;;;28.02;21.59;100719.03;5037088;28;20456;-72
2022/09/10 06:26:28;;;;;;;7.90;5.80;;;;;;;28.52;20.67;100721.63;5037107;28;20052;-70
2022/09/10 06:28:57;;;;;;;10.40;5.35;;;;;;;28.94;20.21;100724.44;5035326;28;20039;-71
2022/09/10 06:31:22;;;;;;;8.93;6.05;;;;;;;29.25;19.57;100728.38;5037725;28;20039;-71
2022/09/10 06:33:49;;;;;;;11.13;5.80;;;;;;;29.36;19.32;100728.84;5038990;28;20039;-71
2022/09/10 06:36:17;;;;;;;9.43;5.97;;;;;;;29.59;19.49;100723.88;5040524;28;20050;-71
2022/09/10 06:38:43;;;;;;;7.70;5.13;;;;;;;29.78;19.07;100745.09;5040938;28;20044;-71
2022/09/10 06:41:12;;;;;;;11.60;5.13;;;;;;;30.22;18.26;100724.44;5039243;28;20545;-62
2022/09/10 06:43:45;;;;;;;10.20;6.10;;;;;;;30.66;18.44;100716.41;5040434;28;20495;-63
2022/09/10 06:46:20;;;;;;;12.73;6.57;;;;;;;31.17;17.92;100718.38;5024311;28;20043;-61
2022/09/10 06:48:49;;;;;;;9.13;5.50;;;;;;;31.68;17.10;100715.63;5058655;28;20110;-61
2022/09/10 06:51:17;;;;;;;6.95;5.25;;;;;;;32.14;16.60;100716.38;5058008;28;20438;-62
2022/09/10 06:53:45;;;;;;;10.20;5.60;;;;;;;32.37;16.47;100708.34;5040708;28;20048;-63
2022/09/10 06:56:13;;;;;;;8.85;4.95;;;;;;;32.78;16.17;100718.81;5059256;28;20047;-62
2022/09/10 06:58:39;;;;;;;8.10;4.78;;;;;;;33.22;15.93;100717.63;5039451;28;20086;-63
2022/09/10 07:01:16;;;;;;;5.45;4.45;;;;;;;33.78;14.93;100719.28;5026471;28;20071;-62
2022/09/10 07:03:46;;;;;;;7.13;4.03;;;;;;;34.28;14.72;100717.03;5027879;28;20119;-63
2022/09/10 07:06:14;;;;;;;7.15;4.38;;;;;;;34.72;14.64;100717.50;5027461;28;20048;-62
2022/09/10 07:08:40;;;;;;;6.57;4.20;;;;;;;35.13;14.54;100713.72;5043568;28;20059;-62
2022/09/10 07:11:13;;;;;;;9.18;4.68;;;;;;;35.38;13.58;100714.31;5040910;28;20072;-63
2022/09/10 07:13:39;;;;;;;9.75;4.43;;;;;;;35.53;13.82;100713.78;5039146;28;20047;-63
2022/09/10 07:16:04;;;;;;;4.35;3.58;;;;;;;35.83;13.23;100728.25;5039389;28;20051;-64
2022/09/10 07:18:30;;;;;;;4.20;3.40;;;;;;;36.26;12.68;100712.91;5039049;28;20411;-64
2022/09/10 07:21:09;;;;;;;5.32;3.67;;;;;;;36.93;12.24;100719.25;5038688;28;20040;-62
2022/09/10 07:23:40;;;;;;;3.67;3.38;;;;;;;37.14;12.30;100713.94;5057321;28;20040;-62
2022/09/10 07:26:08;;;;;;;4.65;3.50;;;;;;;37.36;11.82;100717.63;5038830;28;20043;-62
2022/09/10 07:28:37;;;;;;;7.72;3.92;;;;;;;37.72;11.90;100718.88;5038736;28;20108;-62
2022/09/10 07:31:14;;;;;;;3.47;3.28;;;;;;;38.32;11.26;100717.78;5038470;28;20432;-63
2022/09/10 07:33:42;;;;;;;3.67;3.47;;;;;;;38.37;11.47;100717.84;5038597;28;20043;-62
2022/09/10 07:36:07;;;;;;;3.97;3.60;;;;;;;38.61;10.90;100709.94;5038794;28;20044;-63
2022/09/10 07:38:32;;;;;;;3.80;3.50;;;;;;;38.90;10.85;100705.66;5038686;28;20036;-62
2022/09/10 07:41:01;;;;;;;4.43;3.70;;;;;;;39.22;10.26;100709.19;5038047;28;20511;-62
2022/09/10 07:43:26;;;;;;;4.65;4.15;;;;;;;39.22;10.41;100706.38;5055183;28;20522;-62
2022/09/10 07:45:53;;;;;;;7.07;3.95;;;;;;;39.41;10.30;100709.53;5038045;28;20040;-62
2022/09/10 07:48:18;;;;;;;4.40;4.00;;;;;;;39.59;10.50;100707.38;5055221;28;20040;-65
2022/09/10 07:50:44;;;;;;;5.60;4.18;;;;;;;39.68;10.21;100700.97;5038603;28;20048;-62
2022/09/10 07:53:11;;;;;;;4.32;3.92;;;;;;;39.98;9.81;100702.13;5038225;28;20036;-63
2022/09/10 07:55:35;;;;;;;4.10;3.80;;;;;;;40.45;9.66;100699.91;5038180;28;20048;-62
2022/09/10 07:58:02;;;;;;;43.60;36.25;;;;;;;41.11;9.35;100698.91;5038424;28;20538;-63
2022/09/10 08:00:29;;;;;;;5.78;5.20;;;;;;;41.61;8.99;100690.31;5034875;28;20040;-63
2022/09/10 08:02:57;;;;;;;4.70;4.30;;;;;;;41.77;8.82;100682.63;5034514;28;20091;-63
2022/09/10 08:05:22;;;;;;;4.93;4.50;;;;;;;41.99;8.70;100688.66;5036257;28;20125;-63
2022/09/10 08:07:52;;;;;;;5.03;4.40;;;;;;;42.27;8.46;100687.00;5034502;28;20213;-63
2022/09/10 08:10:18;;;;;;;4.90;4.50;;;;;;;42.33;8.56;100684.97;5018365;28;20044;-63
2022/09/10 08:12:43;;;;;;;9.07;4.90;;;;;;;42.38;8.81;100682.16;5017948;28;20105;-63
2022/09/10 08:15:10;;;;;;;11.25;5.35;;;;;;;42.38;8.68;100682.16;5018108;28;20395;-63
2022/09/10 08:17:37;;;;;;;5.97;4.88;;;;;;;42.53;8.34;100675.59;5018467;28;20049;-64
2022/09/10 08:20:08;;;;;;;5.35;4.75;;;;;;;42.95;7.97;100677.63;5034283;28;20569;-63
2022/09/10 08:22:35;;;;;;;6.45;5.15;;;;;;;43.10;8.28;100678.28;5018178;28;20058;-62
2022/09/10 08:25:00;;;;;;;5.28;4.88;;;;;;;43.31;8.29;100661.19;5017918;28;20402;-62
2022/09/10 08:27:28;;;;;;;5.53;5.03;;;;;;;43.29;8.11;100660.66;5018267;28;20139;-62
2022/09/10 08:29:53;;;;;;;6.30;5.63;;;;;;;43.39;7.88;100661.34;5015858;28;20040;-64
2022/09/10 08:32:20;;;;;;;6.05;5.45;;;;;;;43.70;7.78;100663.69;5021526;28;20055;-63
2022/09/10 08:34:45;;;;;;;5.97;5.35;;;;;;;43.92;7.18;100672.31;5037133;28;20028;-62
2022/09/10 08:37:11;;;;;;;6.13;5.63;;;;;;;43.97;7.71;100663.03;5020601;28;20059;-70
2022/09/10 08:39:37;;;;;;;7.68;5.95;;;;;;;43.49;7.82;100659.50;5037651;28;20746;-70
2022/09/10 08:42:25;;;;;;;5.63;5.10;;;;;;;43.13;7.90;100662.78;5056075;28;20449;-70
2022/09/10 08:44:58;;;;;;;5.38;4.97;;;;;;;42.52;8.32;100660.72;5037307;28;20754;-71
2022/09/10 08:47:34;;;;;;;6.65;5.97;;;;;;;42.58;7.81;100651.09;5040958;28;20043;-71
2022/09/10 08:50:12;;;;;;;5.70;5.30;;;;;;;42.81;7.51;100654.25;5027141;28;20082;-72
2022/09/10 08:52:55;;;;;;;6.38;5.60;;;;;;;43.02;7.67;100647.22;5054322;28;20048;-71
2022/09/10 08:55:31;;;;;;;5.55;5.15;;;;;;;43.10;7.81;100641.81;5055836;28;20073;-72
2022/09/10 08:58:10;;;;;;;6.28;5.15;;;;;;;42.51;8.09;100641.38;5054052;28;20079;-71
2022/09/10 09:00:39;;;;;;;5.55;5.15;;;;;;;41.52;8.60;100638.84;5001668;28;20475;-71
2022/09/10 09:03:47;;;;;;;7.78;5.55;;;;;;;41.72;8.46;100646.28;5034612;28;20474;-71
2022/09/10 09:06:23;;;;;;;6.68;6.10;;;;;;;42.15;8.49;100638.09;4977286;28;20599;-72
2022/09/10 09:08:49;;;;;;;5.88;5.32;;;;;;;42.21;8.16;100637.75;4977155;28;20057;-71
2022/09/10 09:11:47;;;;;;;6.35;5.85;;;;;;;43.13;7.84;100625.47;4993251;28;20037;-72
2022/09/10 09:14:51;;;;;;;6.55;5.80;;;;;;;43.98;7.13;100629.00;4976877;28;20045;-72
2022/09/10 09:17:33;;;;;;;6.00;5.60;;;;;;;44.06;7.10;100628.28;4977044;28;20053;-70
2022/09/10 09:20:07;;;;;;;6.20;5.57;;;;;;;44.05;7.76;100628.59;4975897;28;20467;-70
2022/09/10 09:22:53;;;;;;;7.78;5.88;;;;;;;44.33;7.43;100627.50;4993084;28;20057;-74
2022/09/10 09:25:47;;;;;;;12.43;6.22;;;;;;;44.85;6.53;100623.41;4976476;28;20674;-77
2022/09/10 09:28:36;;;;;;;6.10;5.60;;;;;;;44.41;7.00;100620.34;4978069;28;20050;-70
2022/09/10 09:31:06;;;;;;;6.57;5.80;;;;;;;42.54;7.79;100613.59;4993254;28;20045;-69
2022/09/10 09:33:32;;;;;;;5.50;5.00;;;;;;;40.97;8.53;100612.00;4993384;28;20045;-71
2022/09/10 09:36:00;;;;;;;5.63;4.50;;;;;;;39.49;9.48;100610.50;4993662;28;20156;-70
2022/09/10 09:38:37;;;;;;;5.78;5.13;;;;;;;37.87;10.15;100604.03;4994447;28;20056;-71
2022/09/10 09:41:15;;;;;;;5.85;4.28;;;;;;;35.82;11.34;100598.06;4985621;28;20138;-72
2022/09/10 09:43:48;;;;;;;4.45;3.97;;;;;;;35.34;11.34;100595.78;5019827;28;20560;-71
2022/09/10 09:46:16;;;;;;;4.13;3.75;;;;;;;34.20;12.14;100593.59;5026644;28;20044;-72
2022/09/10 09:48:44;;;;;;;4.38;3.97;;;;;;;33.44;12.76;100588.09;5039850;28;20051;-72
2022/09/10 09:51:13;;;;;;;4.82;3.65;;;;;;;32.66;13.50;100586.13;5041787;28;20044;-72
2022/09/10 09:53:39;;;;;;;4.43;3.90;;;;;;;31.67;14.50;100573.31;5041469;28;20040;-69
2022/09/10 09:56:11;;;;;;;6.00;3.85;;;;;;;31.03;14.89;100574.34;5037510;28;20067;-71
2022/09/10 09:58:36;;;;;;;6.03;4.10;;;;;;;30.93;14.96;100568.44;5055997;28;20043;-70
2022/09/10 10:01:03;;;;;;;4.20;3.55;;;;;;;30.85;14.89;100576.97;5037261;28;20046;-70
2022/09/10 10:04:00;;;;;;;5.40;3.33;;;;;;;30.53;15.03;100564.19;5054697;28;20139;-72
2022/09/10 10:06:28;;;;;;;3.80;3.47;;;;;;;30.48;15.05;100567.56;5036016;28;20143;-70
2022/09/10 10:09:00;;;;;;;9.07;3.70;;;;;;;31.64;14.03;100561.91;5054743;28;20054;-68
2022/09/10 10:11:44;;;;;;;3.55;3.22;;;;;;;31.52;13.98;100555.38;5036851;28;20044;-70
2022/09/10 10:14:38;;;;;;;4.80;3.30;;;;;;;29.34;15.33;100564.25;5055214;28;20910;-69
2022/09/10 10:17:29;;;;;;;6.10;3.30;;;;;;;27.14;17.13;100541.34;5038477;28;20040;-69
2022/09/10 10:20:04;;;;;;;3.92;3.38;;;;;;;25.17;19.44;100548.34;5060173;28;20441;-68
2022/09/10 10:22:29;;;;;;;7.18;3.17;;;;;;;23.89;21.04;100546.84;5049724;28;20117;-70
2022/09/10 10:24:54;;;;;;;3.80;3.03;;;;;;;23.06;21.90;100537.97;5057731;28;20430;-70
2022/09/10 10:27:25;;;;;;;4.07;2.95;;;;;;;22.58;21.87;100539.53;5039878;28;20044;-69
2022/09/10 10:30:00;;;;;;;4.10;2.63;;;;;;;21.61;23.57;100541.72;5036918;28;20383;-71
2022/09/10 10:33:04;;;;;;;7.53;3.42;;;;;;;21.00;23.08;100532.53;5051100;28;20441;-70
2022/09/10 10:35:33;;;;;;;2.85;2.50;;;;;;;19.92;25.07;100540.53;5057653;28;20520;-73
2022/09/10 10:38:06;;;;;;;5.40;2.78;;;;;;;19.41;26.30;100543.59;5055878;28;20028;-70
2022/09/10 10:41:15;;;;;;;9.50;2.90;;;;;;;19.16;26.19;100539.66;5057900;28;20398;-69
2022/09/10 10:44:04;;;;;;;4.90;2.88;;;;;;;18.92;26.43;100525.72;4980825;28;20069;-69
2022/09/10 10:46:52;;;;;;;3.83;2.70;;;;;;;18.72;27.24;100518.59;4982923;28;20073;-70
2022/09/10 10:49:18;;;;;;;4.80;3.17;;;;;;;18.43;28.51;100527.44;4945851;28;20046;-70
2022/09/10 10:52:27;;;;;;;12.52;3.35;;;;;;;18.42;27.73;100520.34;4963537;28;20054;-61
2022/09/10 10:55:10;;;;;;;4.88;3.05;;;;;;;18.35;27.70;100511.09;4918098;29;20059;-62
2022/09/10 10:57:54;;;;;;;6.32;3.03;;;;;;;17.99;29.07;100504.44;4934396;28;20050;-63
2022/09/10 11:00:19;;;;;;;5.43;3.72;;;;;;;17.63;29.98;100497.72;4918129;29;20058;-63
2022/09/10 11:03:11;;;;;;;7.65;3.65;;;;;;;17.58;29.43;100499.09;4919418;29;20114;-62
2022/09/10 11:05:40;;;;;;;6.03;3.20;;;;;;;17.39;30.27;100495.28;4936293;28;20109;-63
2022/09/10 11:08:14;;;;;;;5.93;4.25;;;;;;;17.36;30.02;100495.56;4920197;29;20047;-64
2022/09/10 11:11:05;;;;;;;3.63;2.90;;;;;;;17.21;30.31;100488.78;4935752;28;20186;-63
2022/09/10 11:14:01;;;;;;;5.88;2.97;;;;;;;17.17;29.82;100486.47;4918998;28;20581;-62
2022/09/10 11:16:40;;;;;;;4.38;3.17;;;;;;;17.05;30.86;100483.00;4903223;28;20059;-62
2022/09/10 11:19:15;;;;;;;6.57;3.40;;;;;;;16.97;31.30;100483.66;4972914;28;20054;-63
2022/09/10 11:21:48;;;;;;;3.25;2.95;;;;;;;16.92;32.29;100479.66;4957212;28;20501;-63
2022/09/10 11:24:28;;;;;;;10.10;3.60;;;;;;;16.98;31.41;100476.44;4940771;28;20114;-71
2022/09/10 11:27:08;;;;;;;7.90;4.47;;;;;;;16.98;31.69;100473.72;4939804;28;20434;-69
2022/09/10 11:29:51;;;;;;;6.63;3.35;;;;;;;16.99;31.28;100468.22;4957305;28;20454;-68
2022/09/10 11:32:33;;;;;;;4.32;3.20;;;;;;;16.97;31.94;100466.63;5004838;28;20242;-64
2022/09/10 11:35:27;;;;;;;8.05;4.75;;;;;;;17.00;31.65;100461.00;5000136;28;20041;-64
2022/09/10 11:38:21;;;;;;;5.22;3.50;;;;;;;17.01;30.75;100465.41;5001303;28;20310;-65